Aérodrome :
LOGIN :

S'inscrire | Disclaimer

   EN    FR    IT 

 










Légende :    VFR   VFR Marginal   IFR   IFR Intensif   IFR Très Intensif
Visi : 
Plafond : 
>= 8 km
>= 3000ft
5 à 8 km
1000 à 3000 ft
1500m à 5 km
500 à 1000 ft
800 à 1500m
200 à 500 ft
< 800m
< 200 ft
Symboles :   Orages  Brouillard  Fortes neiges  Fortes précipitations  Vent > 20 kt
SIGMETs :   Divers  Orages  Givrage  Turbulence  Onde Orograph.  Cendres Volcan.






- Altitude de l'aérodrome : 135 ft
- Code IATA : EDI


EGPH - Edinburgh

DERNIER METAR :
  • 051450Z 15012KT 9999 FEW045 20/12 Q0998

METARs EXPIRÉS :
  • 051420Z 15004KT 120V180 9999 -RA FEW029 SCT049 19/14 Q0999
  • 051350Z 15009KT 120V190 9999 -RA BKN045 20/12 Q0999
  • 051320Z 15010KT 9999 BKN049 21/11 Q0999
  • 051250Z 10010KT 070V130 9999 SCT047 21/12 Q0999
  • 051220Z 10008KT CAVOK 21/12 Q1000

TAF TAF EGPH
Valide du 05 à 12h jusqu'au 06 à 12h UTC


051058Z 0512/0612 12009KT 9999 FEW035
TEMPO 0512/0518 6000 SHRA
PROB30
TEMPO 0512/0518 14015G25KT 3000 +SHRA BKN012
TEMPO 0518/0612 5000 SHRA RA BKN010
PROB30
TEMPO 0521/0603 3000 +RA RADZ BKN008
PROB30
TEMPO 0603/0612 2500 +TSRAGS BKN006 BKN015CB
ATIS : +44 131 339 2823



MET'MAP, la Météo Aéronautique d'un coup d'oeil ! - Copyright ORBIFLY Décembre 2007 - Disclaimer

ORBIFLY MET'MAP TEAM :

Programmation & Développement : Alexandra Zaïnal
Sur une idée originale de : Baudouin d'Aumeries
Assistance à la programmation : Marc-Olivier Méhu
Soutien technique & logistique : Manuel Goepfert

Contact : metmap@orbifly.com




SOURCES & CREDITS :

   NOAA